sensor_id;sensor_type;location;lat;lon;timestamp;temperature;humidity
17687;DHT22;8962;52.538;13.266;2023-07-31T00:01:09;15.20;99.90
17687;DHT22;8962;52.538;13.266;2023-07-31T00:03:37;15.20;99.90
17687;DHT22;8962;52.538;13.266;2023-07-31T00:06:04;15.20;99.90
17687;DHT22;8962;52.538;13.266;2023-07-31T00:08:31;15.20;99.90
17687;DHT22;8962;52.538;13.266;2023-07-31T00:10:58;15.10;99.90
17687;DHT22;8962;52.538;13.266;2023-07-31T00:13:26;15.20;99.90
17687;DHT22;8962;52.538;13.266;2023-07-31T00:15:53;15.20;99.90
17687;DHT22;8962;52.538;13.266;2023-07-31T00:18:21;15.20;99.90
17687;DHT22;8962;52.538;13.266;2023-07-31T00:20:51;15.20;99.90
17687;DHT22;8962;52.538;13.266;2023-07-31T00:23:18;15.20;99.90
17687;DHT22;8962;52.538;13.266;2023-07-31T00:25:46;15.20;99.90
17687;DHT22;8962;52.538;13.266;2023-07-31T00:28:13;15.20;99.90
17687;DHT22;8962;52.538;13.266;2023-07-31T00:30:41;15.20;99.90
17687;DHT22;8962;52.538;13.266;2023-07-31T00:33:08;15.20;99.90
17687;DHT22;8962;52.538;13.266;2023-07-31T00:35:37;15.20;99.90
17687;DHT22;8962;52.538;13.266;2023-07-31T00:38:05;15.20;99.90
17687;DHT22;8962;52.538;13.266;2023-07-31T00:40:35;15.30;99.90
17687;DHT22;8962;52.538;13.266;2023-07-31T00:43:05;15.30;99.90
17687;DHT22;8962;52.538;13.266;2023-07-31T00:45:34;15.30;99.90
17687;DHT22;8962;52.538;13.266;2023-07-31T00:48:02;15.30;99.90
17687;DHT22;8962;52.538;13.266;2023-07-31T00:50:29;15.30;99.90
17687;DHT22;8962;52.538;13.266;2023-07-31T00:52:58;15.30;99.90
17687;DHT22;8962;52.538;13.266;2023-07-31T00:55:27;15.30;99.90
17687;DHT22;8962;52.538;13.266;2023-07-31T00:57:55;15.30;99.90
17687;DHT22;8962;52.538;13.266;2023-07-31T01:00:23;15.40;99.90
17687;DHT22;8962;52.538;13.266;2023-07-31T01:02:51;15.40;99.90
17687;DHT22;8962;52.538;13.266;2023-07-31T01:05:23;15.40;99.90
17687;DHT22;8962;52.538;13.266;2023-07-31T01:07:59;15.40;99.90
17687;DHT22;8962;52.538;13.266;2023-07-31T01:10:35;15.40;99.90
17687;DHT22;8962;52.538;13.266;2023-07-31T01:13:04;15.50;99.90
17687;DHT22;8962;52.538;13.266;2023-07-31T01:15:32;15.50;99.90
17687;DHT22;8962;52.538;13.266;2023-07-31T01:17:59;15.60;99.90
17687;DHT22;8962;52.538;13.266;2023-07-31T01:20:27;15.60;99.90
17687;DHT22;8962;52.538;13.266;2023-07-31T01:23:18;15.60;99.90
17687;DHT22;8962;52.538;13.266;2023-07-31T01:26:01;15.60;99.90
17687;DHT22;8962;52.538;13.266;2023-07-31T01:28:36;15.60;99.90
17687;DHT22;8962;52.538;13.266;2023-07-31T01:31:07;15.60;99.90
17687;DHT22;8962;52.538;13.266;2023-07-31T01:33:38;15.70;99.90
17687;DHT22;8962;52.538;13.266;2023-07-31T01:36:08;15.70;99.90
17687;DHT22;8962;52.538;13.266;2023-07-31T01:38:35;15.70;99.90
17687;DHT22;8962;52.538;13.266;2023-07-31T01:41:06;15.70;99.90
17687;DHT22;8962;52.538;13.266;2023-07-31T01:43:33;15.70;99.90
17687;DHT22;8962;52.538;13.266;2023-07-31T01:46:02;15.70;99.90
17687;DHT22;8962;52.538;13.266;2023-07-31T01:48:29;15.70;99.90
17687;DHT22;8962;52.538;13.266;2023-07-31T01:51:01;15.80;99.90
17687;DHT22;8962;52.538;13.266;2023-07-31T01:53:28;15.70;99.90
17687;DHT22;8962;52.538;13.266;2023-07-31T01:55:56;15.70;99.90
17687;DHT22;8962;52.538;13.266;2023-07-31T01:58:26;15.70;99.90
17687;DHT22;8962;52.538;13.266;2023-07-31T02:00:53;15.80;99.90
17687;DHT22;8962;52.538;13.266;2023-07-31T02:03:20;15.80;99.90
17687;DHT22;8962;52.538;13.266;2023-07-31T02:05:48;15.80;99.90
17687;DHT22;8962;52.538;13.266;2023-07-31T02:08:16;15.80;99.90
17687;DHT22;8962;52.538;13.266;2023-07-31T02:10:45;15.80;99.90
17687;DHT22;8962;52.538;13.266;2023-07-31T02:13:12;15.80;99.90
17687;DHT22;8962;52.538;13.266;2023-07-31T02:15:41;15.90;99.90
17687;DHT22;8962;52.538;13.266;2023-07-31T02:18:08;15.90;99.90
17687;DHT22;8962;52.538;13.266;2023-07-31T02:20:36;15.90;99.90
17687;DHT22;8962;52.538;13.266;2023-07-31T02:23:03;15.80;99.90
17687;DHT22;8962;52.538;13.266;2023-07-31T02:25:30;15.80;99.90
17687;DHT22;8962;52.538;13.266;2023-07-31T02:27:58;15.80;99.90
17687;DHT22;8962;52.538;13.266;2023-07-31T02:30:25;15.80;99.90
17687;DHT22;8962;52.538;13.266;2023-07-31T02:32:54;15.80;99.90
17687;DHT22;8962;52.538;13.266;2023-07-31T02:35:21;15.80;99.90
17687;DHT22;8962;52.538;13.266;2023-07-31T02:37:48;15.90;99.90
17687;DHT22;8962;52.538;13.266;2023-07-31T02:40:16;15.80;99.90
17687;DHT22;8962;52.538;13.266;2023-07-31T02:42:44;15.90;99.90
17687;DHT22;8962;52.538;13.266;2023-07-31T02:45:12;15.90;99.90
17687;DHT22;8962;52.538;13.266;2023-07-31T02:47:39;15.90;99.90
17687;DHT22;8962;52.538;13.266;2023-07-31T02:50:09;15.90;99.90
17687;DHT22;8962;52.538;13.266;2023-07-31T02:52:36;16.00;99.90
17687;DHT22;8962;52.538;13.266;2023-07-31T02:55:03;16.00;99.90
17687;DHT22;8962;52.538;13.266;2023-07-31T02:57:31;15.90;99.90
17687;DHT22;8962;52.538;13.266;2023-07-31T02:59:58;16.00;99.90
17687;DHT22;8962;52.538;13.266;2023-07-31T03:02:25;16.00;99.90
17687;DHT22;8962;52.538;13.266;2023-07-31T03:04:54;16.00;99.90
17687;DHT22;8962;52.538;13.266;2023-07-31T03:07:22;16.00;99.90
17687;DHT22;8962;52.538;13.266;2023-07-31T03:09:50;16.00;99.90
17687;DHT22;8962;52.538;13.266;2023-07-31T03:12:18;16.00;99.90
17687;DHT22;8962;52.538;13.266;2023-07-31T03:14:45;16.00;99.90
17687;DHT22;8962;52.538;13.266;2023-07-31T03:17:12;16.00;99.90
17687;DHT22;8962;52.538;13.266;2023-07-31T03:19:39;16.00;99.90
17687;DHT22;8962;52.538;13.266;2023-07-31T03:22:07;16.00;99.90
17687;DHT22;8962;52.538;13.266;2023-07-31T03:24:37;16.00;99.90
17687;DHT22;8962;52.538;13.266;2023-07-31T03:27:05;16.00;99.90
17687;DHT22;8962;52.538;13.266;2023-07-31T03:29:32;16.00;99.90
17687;DHT22;8962;52.538;13.266;2023-07-31T03:31:59;16.00;99.90
17687;DHT22;8962;52.538;13.266;2023-07-31T03:34:27;16.00;99.90
17687;DHT22;8962;52.538;13.266;2023-07-31T03:36:54;15.90;99.90
17687;DHT22;8962;52.538;13.266;2023-07-31T03:39:22;15.90;99.90
17687;DHT22;8962;52.538;13.266;2023-07-31T03:41:53;15.90;99.90
17687;DHT22;8962;52.538;13.266;2023-07-31T03:44:21;15.90;99.90
17687;DHT22;8962;52.538;13.266;2023-07-31T03:46:48;15.90;99.90
17687;DHT22;8962;52.538;13.266;2023-07-31T03:49:16;15.90;99.90
17687;DHT22;8962;52.538;13.266;2023-07-31T03:51:43;15.90;99.90
17687;DHT22;8962;52.538;13.266;2023-07-31T03:54:11;15.90;99.90
17687;DHT22;8962;52.538;13.266;2023-07-31T03:56:39;15.90;99.90
17687;DHT22;8962;52.538;13.266;2023-07-31T03:59:11;15.90;99.90
17687;DHT22;8962;52.538;13.266;2023-07-31T04:01:38;15.90;99.90
17687;DHT22;8962;52.538;13.266;2023-07-31T04:04:05;15.90;99.90
17687;DHT22;8962;52.538;13.266;2023-07-31T04:06:32;15.90;99.90
17687;DHT22;8962;52.538;13.266;2023-07-31T04:08:59;16.00;99.90
17687;DHT22;8962;52.538;13.266;2023-07-31T04:11:26;15.90;99.90
17687;DHT22;8962;52.538;13.266;2023-07-31T04:13:53;16.00;99.90
17687;DHT22;8962;52.538;13.266;2023-07-31T04:16:22;15.90;99.90
17687;DHT22;8962;52.538;13.266;2023-07-31T04:18:49;15.90;99.90
17687;DHT22;8962;52.538;13.266;2023-07-31T04:21:16;16.00;99.90
17687;DHT22;8962;52.538;13.266;2023-07-31T04:23:44;16.00;99.90
17687;DHT22;8962;52.538;13.266;2023-07-31T04:26:11;16.00;99.90
17687;DHT22;8962;52.538;13.266;2023-07-31T04:28:38;16.00;99.90
17687;DHT22;8962;52.538;13.266;2023-07-31T04:31:06;16.10;99.90
17687;DHT22;8962;52.538;13.266;2023-07-31T04:33:36;16.00;99.90
17687;DHT22;8962;52.538;13.266;2023-07-31T04:36:04;16.10;99.90
17687;DHT22;8962;52.538;13.266;2023-07-31T04:38:31;16.10;99.90
17687;DHT22;8962;52.538;13.266;2023-07-31T04:40:59;16.10;99.90
17687;DHT22;8962;52.538;13.266;2023-07-31T04:43:26;16.10;99.90
17687;DHT22;8962;52.538;13.266;2023-07-31T04:45:53;16.10;99.90
17687;DHT22;8962;52.538;13.266;2023-07-31T04:48:21;16.20;99.90
17687;DHT22;8962;52.538;13.266;2023-07-31T04:50:50;16.20;99.90
17687;DHT22;8962;52.538;13.266;2023-07-31T04:53:18;16.10;99.90
17687;DHT22;8962;52.538;13.266;2023-07-31T04:55:45;16.20;99.90
17687;DHT22;8962;52.538;13.266;2023-07-31T04:58:13;16.20;99.90
17687;DHT22;8962;52.538;13.266;2023-07-31T05:00:40;16.20;99.90
17687;DHT22;8962;52.538;13.266;2023-07-31T05:03:07;16.30;99.90
17687;DHT22;8962;52.538;13.266;2023-07-31T05:05:36;16.40;99.90
17687;DHT22;8962;52.538;13.266;2023-07-31T05:08:12;16.40;99.90
17687;DHT22;8962;52.538;13.266;2023-07-31T05:10:39;16.50;99.90
17687;DHT22;8962;52.538;13.266;2023-07-31T05:13:06;16.50;99.90
17687;DHT22;8962;52.538;13.266;2023-07-31T05:15:33;16.50;99.90
17687;DHT22;8962;52.538;13.266;2023-07-31T05:18:00;16.60;99.90
17687;DHT22;8962;52.538;13.266;2023-07-31T05:20:30;16.70;99.90
17687;DHT22;8962;52.538;13.266;2023-07-31T05:22:57;16.70;99.90
17687;DHT22;8962;52.538;13.266;2023-07-31T05:25:27;16.70;99.90
17687;DHT22;8962;52.538;13.266;2023-07-31T05:27:54;16.80;99.90
17687;DHT22;8962;52.538;13.266;2023-07-31T05:30:22;16.80;99.90
17687;DHT22;8962;52.538;13.266;2023-07-31T05:32:49;16.80;99.90
17687;DHT22;8962;52.538;13.266;2023-07-31T05:35:16;16.90;99.90
17687;DHT22;8962;52.538;13.266;2023-07-31T05:37:43;16.80;99.90
17687;DHT22;8962;52.538;13.266;2023-07-31T05:40:11;16.80;99.90
17687;DHT22;8962;52.538;13.266;2023-07-31T05:42:40;16.90;99.90
17687;DHT22;8962;52.538;13.266;2023-07-31T05:45:08;17.00;99.90
17687;DHT22;8962;52.538;13.266;2023-07-31T05:47:36;17.00;99.90
17687;DHT22;8962;52.538;13.266;2023-07-31T05:50:03;17.00;99.90
17687;DHT22;8962;52.538;13.266;2023-07-31T05:52:31;17.10;99.90
17687;DHT22;8962;52.538;13.266;2023-07-31T05:54:58;17.10;99.90
17687;DHT22;8962;52.538;13.266;2023-07-31T05:57:25;17.10;99.90
17687;DHT22;8962;52.538;13.266;2023-07-31T05:59:54;17.10;99.90
17687;DHT22;8962;52.538;13.266;2023-07-31T06:02:21;17.10;99.90
17687;DHT22;8962;52.538;13.266;2023-07-31T06:04:49;17.20;99.90
17687;DHT22;8962;52.538;13.266;2023-07-31T06:07:16;17.20;99.90
17687;DHT22;8962;52.538;13.266;2023-07-31T06:09:44;17.30;99.90
17687;DHT22;8962;52.538;13.266;2023-07-31T06:12:11;17.30;99.90
17687;DHT22;8962;52.538;13.266;2023-07-31T06:14:39;17.30;99.90
17687;DHT22;8962;52.538;13.266;2023-07-31T06:17:08;17.40;99.90
17687;DHT22;8962;52.538;13.266;2023-07-31T06:19:35;17.40;99.90
17687;DHT22;8962;52.538;13.266;2023-07-31T06:22:02;17.50;99.90
17687;DHT22;8962;52.538;13.266;2023-07-31T06:24:29;17.50;99.90
17687;DHT22;8962;52.538;13.266;2023-07-31T06:26:56;17.60;99.90
17687;DHT22;8962;52.538;13.266;2023-07-31T06:29:23;17.50;99.90
17687;DHT22;8962;52.538;13.266;2023-07-31T06:31:50;17.60;99.90
17687;DHT22;8962;52.538;13.266;2023-07-31T06:34:19;17.70;99.90
17687;DHT22;8962;52.538;13.266;2023-07-31T06:36:46;17.70;99.90
17687;DHT22;8962;52.538;13.266;2023-07-31T06:39:13;17.90;99.90
17687;DHT22;8962;52.538;13.266;2023-07-31T06:41:41;18.10;99.90
17687;DHT22;8962;52.538;13.266;2023-07-31T06:44:10;18.20;99.90
17687;DHT22;8962;52.538;13.266;2023-07-31T06:46:38;18.20;99.90
17687;DHT22;8962;52.538;13.266;2023-07-31T06:49:05;18.20;99.90
17687;DHT22;8962;52.538;13.266;2023-07-31T06:51:33;18.20;99.90
17687;DHT22;8962;52.538;13.266;2023-07-31T06:54:01;18.30;99.90
17687;DHT22;8962;52.538;13.266;2023-07-31T06:56:28;18.30;99.90
17687;DHT22;8962;52.538;13.266;2023-07-31T06:58:56;18.40;99.90
17687;DHT22;8962;52.538;13.266;2023-07-31T07:01:23;18.50;99.90
17687;DHT22;8962;52.538;13.266;2023-07-31T07:03:50;18.60;99.90
17687;DHT22;8962;52.538;13.266;2023-07-31T07:06:17;18.50;99.90
17687;DHT22;8962;52.538;13.266;2023-07-31T07:08:46;18.40;99.90
17687;DHT22;8962;52.538;13.266;2023-07-31T07:11:13;18.20;99.90
17687;DHT22;8962;52.538;13.266;2023-07-31T07:13:40;18.10;99.90
17687;DHT22;8962;52.538;13.266;2023-07-31T07:16:07;18.10;99.90
17687;DHT22;8962;52.538;13.266;2023-07-31T07:18:36;18.10;99.90
17687;DHT22;8962;52.538;13.266;2023-07-31T07:21:04;18.20;99.90
17687;DHT22;8962;52.538;13.266;2023-07-31T07:23:31;18.20;99.90
17687;DHT22;8962;52.538;13.266;2023-07-31T07:26:01;18.30;99.90
17687;DHT22;8962;52.538;13.266;2023-07-31T07:28:28;18.30;99.90
17687;DHT22;8962;52.538;13.266;2023-07-31T07:30:55;18.20;99.90
17687;DHT22;8962;52.538;13.266;2023-07-31T07:33:23;18.20;99.90
17687;DHT22;8962;52.538;13.266;2023-07-31T07:35:50;18.10;99.90
17687;DHT22;8962;52.538;13.266;2023-07-31T07:38:17;18.10;99.90
17687;DHT22;8962;52.538;13.266;2023-07-31T07:40:45;18.20;99.90
17687;DHT22;8962;52.538;13.266;2023-07-31T07:43:14;18.40;99.90
17687;DHT22;8962;52.538;13.266;2023-07-31T07:45:41;18.50;99.90
17687;DHT22;8962;52.538;13.266;2023-07-31T07:48:08;18.40;99.90
17687;DHT22;8962;52.538;13.266;2023-07-31T07:50:38;18.40;99.90
17687;DHT22;8962;52.538;13.266;2023-07-31T07:53:05;18.20;99.90
17687;DHT22;8962;52.538;13.266;2023-07-31T07:55:32;18.00;99.90
17687;DHT22;8962;52.538;13.266;2023-07-31T07:58:00;18.10;99.90
17687;DHT22;8962;52.538;13.266;2023-07-31T08:00:29;18.10;99.90
17687;DHT22;8962;52.538;13.266;2023-07-31T08:02:56;18.40;99.90
17687;DHT22;8962;52.538;13.266;2023-07-31T08:05:24;18.50;99.90
17687;DHT22;8962;52.538;13.266;2023-07-31T08:07:51;18.60;99.90
17687;DHT22;8962;52.538;13.266;2023-07-31T08:10:18;18.40;99.90
17687;DHT22;8962;52.538;13.266;2023-07-31T08:12:46;18.40;99.90
17687;DHT22;8962;52.538;13.266;2023-07-31T08:15:13;18.40;99.90
17687;DHT22;8962;52.538;13.266;2023-07-31T08:17:41;18.40;99.90
17687;DHT22;8962;52.538;13.266;2023-07-31T08:20:10;18.40;99.90
17687;DHT22;8962;52.538;13.266;2023-07-31T08:22:37;18.40;99.90
17687;DHT22;8962;52.538;13.266;2023-07-31T08:25:05;18.40;99.90
17687;DHT22;8962;52.538;13.266;2023-07-31T08:27:34;18.20;99.90
17687;DHT22;8962;52.538;13.266;2023-07-31T08:30:01;18.10;99.90
17687;DHT22;8962;52.538;13.266;2023-07-31T08:32:28;18.10;99.90
17687;DHT22;8962;52.538;13.266;2023-07-31T08:34:57;18.20;99.90
17687;DHT22;8962;52.538;13.266;2023-07-31T08:37:24;18.20;99.90
17687;DHT22;8962;52.538;13.266;2023-07-31T08:39:51;18.40;99.90
17687;DHT22;8962;52.538;13.266;2023-07-31T08:42:19;18.50;99.90
17687;DHT22;8962;52.538;13.266;2023-07-31T08:44:46;18.60;99.90
17687;DHT22;8962;52.538;13.266;2023-07-31T08:47:15;18.80;99.90
17687;DHT22;8962;52.538;13.266;2023-07-31T08:49:43;18.90;99.90
17687;DHT22;8962;52.538;13.266;2023-07-31T08:52:14;18.90;99.90
17687;DHT22;8962;52.538;13.266;2023-07-31T08:54:42;18.80;99.90
17687;DHT22;8962;52.538;13.266;2023-07-31T08:57:10;18.60;99.90
17687;DHT22;8962;52.538;13.266;2023-07-31T08:59:38;18.80;99.90
17687;DHT22;8962;52.538;13.266;2023-07-31T09:02:07;19.10;99.90
17687;DHT22;8962;52.538;13.266;2023-07-31T09:04:35;19.10;99.90
17687;DHT22;8962;52.538;13.266;2023-07-31T09:07:03;19.10;99.90
17687;DHT22;8962;52.538;13.266;2023-07-31T09:09:33;19.10;99.90
17687;DHT22;8962;52.538;13.266;2023-07-31T09:12:00;19.10;99.90
17687;DHT22;8962;52.538;13.266;2023-07-31T09:14:29;19.10;99.90
17687;DHT22;8962;52.538;13.266;2023-07-31T09:16:58;18.90;99.90
17687;DHT22;8962;52.538;13.266;2023-07-31T09:19:26;18.90;99.90
17687;DHT22;8962;52.538;13.266;2023-07-31T09:21:53;18.70;99.90
17687;DHT22;8962;52.538;13.266;2023-07-31T09:24:27;18.50;99.90
17687;DHT22;8962;52.538;13.266;2023-07-31T09:26:58;18.40;99.90
17687;DHT22;8962;52.538;13.266;2023-07-31T09:29:26;18.30;99.90
17687;DHT22;8962;52.538;13.266;2023-07-31T09:31:54;18.30;99.90
17687;DHT22;8962;52.538;13.266;2023-07-31T09:34:29;18.20;99.90
17687;DHT22;8962;52.538;13.266;2023-07-31T09:37:01;18.10;99.90
17687;DHT22;8962;52.538;13.266;2023-07-31T09:39:30;18.00;99.90
17687;DHT22;8962;52.538;13.266;2023-07-31T09:41:59;18.10;99.90
17687;DHT22;8962;52.538;13.266;2023-07-31T09:44:38;18.20;99.90
17687;DHT22;8962;52.538;13.266;2023-07-31T09:47:06;18.30;99.90
17687;DHT22;8962;52.538;13.266;2023-07-31T09:49:33;18.50;99.90
17687;DHT22;8962;52.538;13.266;2023-07-31T09:52:00;18.70;99.90
17687;DHT22;8962;52.538;13.266;2023-07-31T09:54:27;18.80;99.90
17687;DHT22;8962;52.538;13.266;2023-07-31T09:56:56;18.90;99.90
17687;DHT22;8962;52.538;13.266;2023-07-31T09:59:26;18.90;99.90
17687;DHT22;8962;52.538;13.266;2023-07-31T10:01:55;19.00;99.90
17687;DHT22;8962;52.538;13.266;2023-07-31T10:04:27;19.00;99.90
17687;DHT22;8962;52.538;13.266;2023-07-31T10:06:55;19.20;99.90
17687;DHT22;8962;52.538;13.266;2023-07-31T10:09:23;19.50;99.90
17687;DHT22;8962;52.538;13.266;2023-07-31T10:11:55;19.60;99.90
17687;DHT22;8962;52.538;13.266;2023-07-31T10:14:26;19.50;99.90
17687;DHT22;8962;52.538;13.266;2023-07-31T10:16:54;19.40;99.90
17687;DHT22;8962;52.538;13.266;2023-07-31T10:19:22;19.20;99.90
17687;DHT22;8962;52.538;13.266;2023-07-31T10:21:51;19.10;99.90
17687;DHT22;8962;52.538;13.266;2023-07-31T10:24:20;18.90;99.90
17687;DHT22;8962;52.538;13.266;2023-07-31T10:26:48;19.10;99.90
17687;DHT22;8962;52.538;13.266;2023-07-31T10:29:16;19.20;99.90
17687;DHT22;8962;52.538;13.266;2023-07-31T10:31:47;19.30;99.90
17687;DHT22;8962;52.538;13.266;2023-07-31T10:34:14;19.30;99.90
17687;DHT22;8962;52.538;13.266;2023-07-31T10:36:41;19.40;99.90
17687;DHT22;8962;52.538;13.266;2023-07-31T10:39:33;19.40;99.90
17687;DHT22;8962;52.538;13.266;2023-07-31T10:42:12;19.40;99.90
17687;DHT22;8962;52.538;13.266;2023-07-31T10:44:44;19.80;99.90
17687;DHT22;8962;52.538;13.266;2023-07-31T10:47:16;20.30;99.90
17687;DHT22;8962;52.538;13.266;2023-07-31T10:49:45;20.90;93.00
17687;DHT22;8962;52.538;13.266;2023-07-31T10:52:13;21.40;85.40
17687;DHT22;8962;52.538;13.266;2023-07-31T10:54:48;21.60;81.70
17687;DHT22;8962;52.538;13.266;2023-07-31T10:57:21;21.80;69.70
17687;DHT22;8962;52.538;13.266;2023-07-31T10:59:50;21.80;60.50
17687;DHT22;8962;52.538;13.266;2023-07-31T11:02:26;21.80;66.00
17687;DHT22;8962;52.538;13.266;2023-07-31T11:05:09;21.80;60.90
17687;DHT22;8962;52.538;13.266;2023-07-31T11:07:54;21.90;57.30
17687;DHT22;8962;52.538;13.266;2023-07-31T11:10:23;21.90;46.10
17687;DHT22;8962;52.538;13.266;2023-07-31T11:12:51;21.70;52.10
17687;DHT22;8962;52.538;13.266;2023-07-31T11:15:18;21.50;55.40
17687;DHT22;8962;52.538;13.266;2023-07-31T11:17:47;21.40;61.80
17687;DHT22;8962;52.538;13.266;2023-07-31T11:20:14;21.40;62.10
17687;DHT22;8962;52.538;13.266;2023-07-31T11:22:42;21.60;55.70
17687;DHT22;8962;52.538;13.266;2023-07-31T11:25:10;21.70;38.10
17687;DHT22;8962;52.538;13.266;2023-07-31T11:27:39;21.60;36.80
17687;DHT22;8962;52.538;13.266;2023-07-31T11:30:08;21.40;47.00
17687;DHT22;8962;52.538;13.266;2023-07-31T11:32:36;21.30;46.20
17687;DHT22;8962;52.538;13.266;2023-07-31T11:35:05;21.30;42.70
17687;DHT22;8962;52.538;13.266;2023-07-31T11:37:40;21.20;39.60
17687;DHT22;8962;52.538;13.266;2023-07-31T11:40:08;20.90;46.00
17687;DHT22;8962;52.538;13.266;2023-07-31T11:42:36;20.90;43.20
17687;DHT22;8962;52.538;13.266;2023-07-31T11:45:04;20.90;46.20
17687;DHT22;8962;52.538;13.266;2023-07-31T11:47:32;21.00;44.70
17687;DHT22;8962;52.538;13.266;2023-07-31T11:50:01;20.90;45.70
17687;DHT22;8962;52.538;13.266;2023-07-31T11:52:34;20.90;45.20
17687;DHT22;8962;52.538;13.266;2023-07-31T11:55:03;20.80;43.30
17687;DHT22;8962;52.538;13.266;2023-07-31T11:57:31;20.80;44.70
17687;DHT22;8962;52.538;13.266;2023-07-31T11:59:59;20.80;46.20
17687;DHT22;8962;52.538;13.266;2023-07-31T12:02:26;20.80;46.50
17687;DHT22;8962;52.538;13.266;2023-07-31T12:04:54;20.80;51.20
17687;DHT22;8962;52.538;13.266;2023-07-31T12:07:21;20.80;52.90
17687;DHT22;8962;52.538;13.266;2023-07-31T12:09:53;20.90;49.80
17687;DHT22;8962;52.538;13.266;2023-07-31T12:12:21;21.00;42.90
17687;DHT22;8962;52.538;13.266;2023-07-31T12:14:48;21.10;41.80
17687;DHT22;8962;52.538;13.266;2023-07-31T12:17:17;21.00;41.40
17687;DHT22;8962;52.538;13.266;2023-07-31T12:19:45;21.30;40.40
17687;DHT22;8962;52.538;13.266;2023-07-31T12:22:14;21.50;32.80
17687;DHT22;8962;52.538;13.266;2023-07-31T12:24:42;21.70;18.50
17687;DHT22;8962;52.538;13.266;2023-07-31T12:27:13;21.40;26.50
17687;DHT22;8962;52.538;13.266;2023-07-31T12:29:42;21.50;28.70
17687;DHT22;8962;52.538;13.266;2023-07-31T12:32:23;21.70;20.90
17687;DHT22;8962;52.538;13.266;2023-07-31T12:34:51;21.60;4.90
17687;DHT22;8962;52.538;13.266;2023-07-31T12:37:18;21.60;7.50
17687;DHT22;8962;52.538;13.266;2023-07-31T12:39:45;21.30;17.10
17687;DHT22;8962;52.538;13.266;2023-07-31T12:42:14;21.50;16.90
17687;DHT22;8962;52.538;13.266;2023-07-31T12:44:44;21.70;1.00
17687;DHT22;8962;52.538;13.266;2023-07-31T12:47:11;21.60;1.00
17687;DHT22;8962;52.538;13.266;2023-07-31T12:49:40;21.50;1.00
17687;DHT22;8962;52.538;13.266;2023-07-31T12:52:08;21.20;1.00
17687;DHT22;8962;52.538;13.266;2023-07-31T12:54:35;20.80;1.00
17687;DHT22;8962;52.538;13.266;2023-07-31T12:57:02;20.70;16.90
17687;DHT22;8962;52.538;13.266;2023-07-31T12:59:31;20.80;8.00
17687;DHT22;8962;52.538;13.266;2023-07-31T13:01:58;20.70;16.70
17687;DHT22;8962;52.538;13.266;2023-07-31T13:04:25;20.40;32.20
17687;DHT22;8962;52.538;13.266;2023-07-31T13:06:52;20.10;74.80
17687;DHT22;8962;52.538;13.266;2023-07-31T13:09:19;20.00;92.30
17687;DHT22;8962;52.538;13.266;2023-07-31T13:11:46;20.00;93.70
17687;DHT22;8962;52.538;13.266;2023-07-31T13:14:13;20.30;91.90
17687;DHT22;8962;52.538;13.266;2023-07-31T13:16:41;20.70;78.70
17687;DHT22;8962;52.538;13.266;2023-07-31T13:19:08;20.90;58.70
17687;DHT22;8962;52.538;13.266;2023-07-31T13:21:36;21.40;31.40
17687;DHT22;8962;52.538;13.266;2023-07-31T13:24:04;21.50;21.50
17687;DHT22;8962;52.538;13.266;2023-07-31T13:26:31;21.60;20.00
17687;DHT22;8962;52.538;13.266;2023-07-31T13:28:59;21.80;11.40
17687;DHT22;8962;52.538;13.266;2023-07-31T13:31:26;21.90;4.40
17687;DHT22;8962;52.538;13.266;2023-07-31T13:33:55;22.30;1.00
17687;DHT22;8962;52.538;13.266;2023-07-31T13:36:22;22.70;1.00
17687;DHT22;8962;52.538;13.266;2023-07-31T13:38:51;23.00;1.00
17687;DHT22;8962;52.538;13.266;2023-07-31T13:41:18;23.20;1.00
17687;DHT22;8962;52.538;13.266;2023-07-31T13:43:45;23.30;1.00
17687;DHT22;8962;52.538;13.266;2023-07-31T13:46:13;23.20;1.00
17687;DHT22;8962;52.538;13.266;2023-07-31T13:48:40;23.10;1.00
17687;DHT22;8962;52.538;13.266;2023-07-31T13:51:11;22.90;1.00
17687;DHT22;8962;52.538;13.266;2023-07-31T13:53:39;22.60;1.00
17687;DHT22;8962;52.538;13.266;2023-07-31T13:56:06;22.50;1.00
17687;DHT22;8962;52.538;13.266;2023-07-31T13:58:33;22.50;1.00
17687;DHT22;8962;52.538;13.266;2023-07-31T14:01:00;22.30;1.00
17687;DHT22;8962;52.538;13.266;2023-07-31T14:03:28;22.10;1.00
17687;DHT22;8962;52.538;13.266;2023-07-31T14:05:55;22.10;1.00
17687;DHT22;8962;52.538;13.266;2023-07-31T14:08:24;21.90;1.00
17687;DHT22;8962;52.538;13.266;2023-07-31T14:10:51;21.90;1.00
17687;DHT22;8962;52.538;13.266;2023-07-31T14:13:19;21.90;1.00
17687;DHT22;8962;52.538;13.266;2023-07-31T14:15:46;22.00;1.00
17687;DHT22;8962;52.538;13.266;2023-07-31T14:18:14;21.90;1.00
17687;DHT22;8962;52.538;13.266;2023-07-31T14:20:42;21.90;1.00
17687;DHT22;8962;52.538;13.266;2023-07-31T14:23:09;21.80;1.00
17687;DHT22;8962;52.538;13.266;2023-07-31T14:25:39;21.90;1.00
17687;DHT22;8962;52.538;13.266;2023-07-31T14:28:07;21.80;1.00
17687;DHT22;8962;52.538;13.266;2023-07-31T14:30:36;22.00;1.00
17687;DHT22;8962;52.538;13.266;2023-07-31T14:33:03;22.20;1.00
17687;DHT22;8962;52.538;13.266;2023-07-31T14:35:30;22.20;1.00
17687;DHT22;8962;52.538;13.266;2023-07-31T14:37:57;22.10;1.00
17687;DHT22;8962;52.538;13.266;2023-07-31T14:40:24;21.90;1.00
17687;DHT22;8962;52.538;13.266;2023-07-31T14:42:52;21.90;1.00
17687;DHT22;8962;52.538;13.266;2023-07-31T14:45:19;21.80;1.00
17687;DHT22;8962;52.538;13.266;2023-07-31T14:47:47;21.80;1.00
17687;DHT22;8962;52.538;13.266;2023-07-31T14:50:14;21.70;1.00
17687;DHT22;8962;52.538;13.266;2023-07-31T14:52:41;21.60;1.00
17687;DHT22;8962;52.538;13.266;2023-07-31T14:55:08;21.60;1.00
17687;DHT22;8962;52.538;13.266;2023-07-31T14:57:35;21.60;1.00
17687;DHT22;8962;52.538;13.266;2023-07-31T15:00:05;21.60;1.00
17687;DHT22;8962;52.538;13.266;2023-07-31T15:02:34;21.50;1.00
17687;DHT22;8962;52.538;13.266;2023-07-31T15:05:01;21.40;1.00
17687;DHT22;8962;52.538;13.266;2023-07-31T15:07:28;21.50;1.00
17687;DHT22;8962;52.538;13.266;2023-07-31T15:09:55;21.50;1.00
17687;DHT22;8962;52.538;13.266;2023-07-31T15:12:22;21.50;1.00
17687;DHT22;8962;52.538;13.266;2023-07-31T15:14:50;21.40;1.00
17687;DHT22;8962;52.538;13.266;2023-07-31T15:17:19;21.40;1.00
17687;DHT22;8962;52.538;13.266;2023-07-31T15:19:47;21.60;1.00
17687;DHT22;8962;52.538;13.266;2023-07-31T15:22:15;21.80;1.00
17687;DHT22;8962;52.538;13.266;2023-07-31T15:24:42;21.90;1.00
17687;DHT22;8962;52.538;13.266;2023-07-31T15:27:09;21.90;1.00
17687;DHT22;8962;52.538;13.266;2023-07-31T15:29:36;21.90;1.00
17687;DHT22;8962;52.538;13.266;2023-07-31T15:32:04;21.90;1.00
17687;DHT22;8962;52.538;13.266;2023-07-31T15:34:33;21.70;1.00
17687;DHT22;8962;52.538;13.266;2023-07-31T15:37:00;21.60;1.00
17687;DHT22;8962;52.538;13.266;2023-07-31T15:39:27;21.50;1.00